Time,TemperatureF,DewpointF,PressureIn,WindDirection,WindDirectionDegrees,WindSpeedMPH,WindSpeedGustMPH,Humidity,HourlyPrecipIn,Conditions,Clouds,dailyrainin,SolarRadiationWatts/m^2,SoftwareType,DateUTC
2013-10-23 01:12:00,57.0,50.0,-100.00,WSW,251,4.0,8.0,77,-99.99,,,0.00,0.000000,,2013-10-23 08:12:00,
2013-10-23 01:22:00,57.0,50.0,-100.00,WSW,251,4.0,8.0,77,-99.99,,,0.00,0.000000,,2013-10-23 08:22:00,
2013-10-23 01:32:00,57.0,50.0,-100.00,WSW,251,4.0,8.0,77,-99.99,,,0.00,0.000000,,2013-10-23 08:32:00,
2013-10-23 01:42:00,57.0,50.0,-100.00,WSW,251,4.0,8.0,77,-99.99,,,0.00,0.000000,,2013-10-23 08:42:00,
2013-10-23 02:22:00,57.0,49.0,-100.00,WSW,258,0.0,7.0,74,-99.99,,,0.00,0.000000,,2013-10-23 09:22:00,
2013-10-23 02:33:00,57.0,49.0,-100.00,WSW,258,0.0,7.0,74,-99.99,,,0.00,0.000000,,2013-10-23 09:33:00,
2013-10-23 03:12:00,55.0,51.0,-100.00,ENE,75,0.0,2.0,86,-99.99,,,0.00,0.000000,,2013-10-23 10:12:00,
2013-10-23 03:23:00,55.0,51.0,-100.00,ENE,75,0.0,2.0,86,-99.99,,,0.00,0.000000,,2013-10-23 10:23:00,
2013-10-23 03:32:00,55.0,51.0,-100.00,ENE,75,0.0,2.0,86,-99.99,,,0.00,0.000000,,2013-10-23 10:32:00,
2013-10-23 03:43:00,55.0,51.0,-100.00,ENE,75,0.0,2.0,86,-99.99,,,0.00,0.000000,,2013-10-23 10:43:00,
2013-10-23 04:12:00,55.0,49.0,-100.00,SW,233,0.0,3.0,80,0.00,,,0.00,0.000000,,2013-10-23 11:12:00,
2013-10-23 04:22:00,55.0,49.0,-100.00,SW,233,0.0,3.0,80,0.00,,,0.00,0.000000,,2013-10-23 11:22:00,
2013-10-23 04:33:00,55.0,49.0,-100.00,SW,233,0.0,3.0,80,0.00,,,0.00,0.000000,,2013-10-23 11:33:00,
2013-10-23 07:11:00,54.0,48.0,-100.00,East,87,6.0,14.0,81,-99.99,,,0.00,0.000000,,2013-10-23 14:11:00,
2013-10-23 07:22:00,54.0,48.0,-100.00,East,87,6.0,14.0,81,-99.99,,,0.00,0.000000,,2013-10-23 14:22:00,
2013-10-23 07:32:00,54.0,48.0,-100.00,East,87,6.0,14.0,81,-99.99,,,0.00,0.000000,,2013-10-23 14:32:00,
2013-10-23 07:42:00,54.0,48.0,-100.00,East,87,6.0,14.0,81,-99.99,,,0.00,0.000000,,2013-10-23 14:42:00,
2013-10-23 08:22:00,51.0,46.0,-100.00,West,272,0.0,12.0,82,0.00,,,0.00,14.000000,,2013-10-23 15:22:00,
2013-10-23 08:33:00,51.0,46.0,-100.00,West,272,0.0,12.0,82,0.00,,,0.00,14.000000,,2013-10-23 15:33:00,
2013-10-23 08:43:00,51.0,46.0,-100.00,West,272,0.0,12.0,82,0.00,,,0.00,14.000000,,2013-10-23 15:43:00,
2013-10-23 09:23:00,52.0,45.0,-100.00,ENE,73,1.0,3.0,78,0.00,,,-99.99,177.000000,,2013-10-23 16:23:00,
2013-10-23 09:33:00,52.0,45.0,-100.00,ENE,73,1.0,3.0,78,0.00,,,-99.99,177.000000,,2013-10-23 16:33:00,
2013-10-23 09:42:00,52.0,45.0,-100.00,ENE,73,1.0,3.0,78,0.00,,,-99.99,177.000000,,2013-10-23 16:42:00,
2013-10-23 10:12:00,49.0,47.0,-100.00,WSW,250,4.0,7.0,93,0.00,,,-99.99,365.000000,,2013-10-23 17:12:00,
2013-10-23 10:22:00,49.0,47.0,-100.00,WSW,250,4.0,7.0,93,0.00,,,-99.99,365.000000,,2013-10-23 17:22:00,
2013-10-23 10:33:00,49.0,47.0,-100.00,WSW,250,4.0,7.0,93,0.00,,,-99.99,365.000000,,2013-10-23 17:33:00,
2013-10-23 10:44:00,49.0,47.0,-100.00,WSW,250,4.0,7.0,93,0.00,,,-99.99,365.000000,,2013-10-23 17:44:00,
2013-10-23 11:12:00,50.0,49.0,-100.00,West,263,12.0,15.0,97,0.00,,,0.00,308.000000,,2013-10-23 18:12:00,
2013-10-23 11:22:00,50.0,49.0,-100.00,West,263,12.0,15.0,97,0.00,,,0.00,308.000000,,2013-10-23 18:22:00,
2013-10-23 11:32:00,50.0,49.0,-100.00,West,263,12.0,15.0,97,0.00,,,0.00,308.000000,,2013-10-23 18:32:00,
2013-10-23 11:41:00,50.0,49.0,-100.00,West,263,12.0,15.0,97,0.00,,,0.00,308.000000,,2013-10-23 18:41:00,
2013-10-23 12:21:00,53.0,52.0,-100.00,West,270,14.0,18.0,97,-99.99,,,0.00,432.000000,,2013-10-23 19:21:00,
2013-10-23 12:32:00,53.0,52.0,-100.00,West,270,14.0,18.0,97,-99.99,,,0.00,432.000000,,2013-10-23 19:32:00,
2013-10-23 12:42:00,53.0,52.0,-100.00,West,270,14.0,18.0,97,-99.99,,,0.00,432.000000,,2013-10-23 19:42:00,
2013-10-23 13:22:00,55.0,50.0,-100.00,West,271,16.0,20.0,83,-99.99,,,0.00,691.000000,,2013-10-23 20:22:00,
2013-10-23 13:33:00,55.0,50.0,-100.00,West,271,16.0,20.0,83,-99.99,,,0.00,691.000000,,2013-10-23 20:33:00,
2013-10-23 14:12:00,60.0,52.0,-100.00,West,269,15.0,21.0,74,-99.99,,,0.00,682.000000,,2013-10-23 21:12:00,
2013-10-23 14:22:00,60.0,52.0,-100.00,West,269,15.0,21.0,74,-99.99,,,0.00,682.000000,,2013-10-23 21:22:00,
2013-10-23 14:34:00,60.0,52.0,-100.00,West,269,15.0,21.0,74,-99.99,,,0.00,682.000000,,2013-10-23 21:34:00,
2013-10-23 14:43:00,60.0,52.0,-100.00,West,269,15.0,21.0,74,-99.99,,,0.00,682.000000,,2013-10-23 21:43:00,
2013-10-23 15:13:00,64.0,51.0,-100.00,West,273,15.0,19.0,63,0.00,,,0.00,612.000000,,2013-10-23 22:13:00,
2013-10-23 15:24:00,64.0,51.0,-100.00,West,273,15.0,19.0,63,0.00,,,0.00,612.000000,,2013-10-23 22:24:00,
2013-10-23 15:33:00,64.0,51.0,-100.00,West,273,15.0,19.0,63,0.00,,,0.00,612.000000,,2013-10-23 22:33:00,
2013-10-23 15:43:00,64.0,51.0,-100.00,West,273,15.0,19.0,63,0.00,,,0.00,612.000000,,2013-10-23 22:43:00,
2013-10-23 16:12:00,66.0,51.0,-100.00,West,268,14.0,19.0,59,0.00,,,0.00,484.000000,,2013-10-23 23:12:00,
2013-10-23 16:22:00,66.0,51.0,-100.00,West,268,14.0,19.0,59,0.00,,,0.00,484.000000,,2013-10-23 23:22:00,
2013-10-23 16:34:00,66.0,51.0,-100.00,West,268,14.0,19.0,59,0.00,,,0.00,484.000000,,2013-10-23 23:34:00,
2013-10-23 16:42:00,66.0,51.0,-100.00,West,268,14.0,19.0,59,0.00,,,0.00,484.000000,,2013-10-23 23:42:00,
2013-10-23 17:12:00,62.0,51.0,-100.00,WSW,245,14.0,19.0,66,0.00,,,0.00,310.000000,,2013-10-24 00:12:00,
2013-10-23 17:22:00,62.0,51.0,-100.00,WSW,245,14.0,19.0,66,0.00,,,0.00,310.000000,,2013-10-24 00:22:00,
2013-10-23 17:32:00,62.0,51.0,-100.00,WSW,245,14.0,19.0,66,0.00,,,0.00,310.000000,,2013-10-24 00:32:00,
2013-10-23 17:42:00,62.0,51.0,-100.00,WSW,245,14.0,19.0,66,0.00,,,0.00,310.000000,,2013-10-24 00:42:00,
2013-10-23 18:11:00,58.0,50.0,-100.00,SW,234,12.0,19.0,74,0.00,,,0.00,123.000000,,2013-10-24 01:11:00,
2013-10-23 18:21:00,58.0,50.0,-100.00,SW,234,12.0,19.0,74,0.00,,,0.00,123.000000,,2013-10-24 01:21:00,
2013-10-23 18:32:00,58.0,50.0,-100.00,SW,234,12.0,19.0,74,0.00,,,0.00,123.000000,,2013-10-24 01:32:00,
2013-10-23 18:42:00,58.0,50.0,-100.00,SW,234,12.0,19.0,74,0.00,,,0.00,123.000000,,2013-10-24 01:42:00,
2013-10-23 19:12:00,55.0,50.0,-100.00,WSW,244,8.0,14.0,84,0.00,,,0.00,8.000000,,2013-10-24 02:12:00,
2013-10-23 19:22:00,55.0,50.0,-100.00,WSW,244,8.0,14.0,84,0.00,,,0.00,8.000000,,2013-10-24 02:22:00,
2013-10-23 19:32:00,55.0,50.0,-100.00,WSW,244,8.0,14.0,84,0.00,,,0.00,8.000000,,2013-10-24 02:32:00,
2013-10-23 19:42:00,55.0,50.0,-100.00,WSW,244,8.0,14.0,84,0.00,,,0.00,8.000000,,2013-10-24 02:42:00,
2013-10-23 20:12:00,54.0,51.0,-100.00,WSW,238,7.0,11.0,91,0.00,,,0.00,0.000000,,2013-10-24 03:12:00,
2013-10-23 20:22:00,54.0,51.0,-100.00,WSW,238,7.0,11.0,91,0.00,,,0.00,0.000000,,2013-10-24 03:22:00,
2013-10-23 20:34:00,54.0,51.0,-100.00,WSW,238,7.0,11.0,91,0.00,,,0.00,0.000000,,2013-10-24 03:34:00,
2013-10-23 20:44:00,54.0,51.0,-100.00,WSW,238,7.0,11.0,91,0.00,,,0.00,0.000000,,2013-10-24 03:44:00,
2013-10-23 21:14:00,52.0,51.0,-100.00,West,265,11.0,14.0,96,0.00,,,0.00,0.000000,,2013-10-24 04:14:00,
2013-10-23 21:24:00,52.0,51.0,-100.00,West,265,11.0,14.0,96,0.00,,,0.00,0.000000,,2013-10-24 04:24:00,
2013-10-23 21:35:00,52.0,51.0,-100.00,West,265,11.0,14.0,96,0.00,,,0.00,0.000000,,2013-10-24 04:35:00,
2013-10-23 21:44:00,52.0,51.0,-100.00,West,265,11.0,14.0,96,0.00,,,0.00,0.000000,,2013-10-24 04:44:00,
2013-10-23 22:13:00,52.0,51.0,-100.00,West,267,5.0,14.0,97,0.00,,,0.00,0.000000,,2013-10-24 05:13:00,
2013-10-23 22:22:00,52.0,51.0,-100.00,West,267,5.0,14.0,97,0.00,,,0.00,0.000000,,2013-10-24 05:22:00,
2013-10-23 22:33:00,52.0,51.0,-100.00,West,267,5.0,14.0,97,0.00,,,0.00,0.000000,,2013-10-24 05:33:00,
2013-10-23 22:42:00,52.0,51.0,-100.00,West,267,5.0,14.0,97,0.00,,,0.00,0.000000,,2013-10-24 05:42:00,
2013-10-23 23:12:00,52.0,51.0,-100.00,West,269,3.0,7.0,97,0.00,,,0.00,0.000000,,2013-10-24 06:12:00,
2013-10-23 23:21:00,52.0,51.0,-100.00,West,269,3.0,7.0,97,0.00,,,0.00,0.000000,,2013-10-24 06:21:00,
2013-10-23 23:32:00,52.0,51.0,-100.00,West,269,3.0,7.0,97,0.00,,,0.00,0.000000,,2013-10-24 06:32:00,
2013-10-23 23:42:00,52.0,51.0,-100.00,West,269,3.0,7.0,97,0.00,,,0.00,0.000000,,2013-10-24 06:42:00,